Time;durP1;ratioP1;P1;durP2;ratioP2;P2;SDS_P1;SDS_P2;PMS_P1;PMS_P2;Temp;Humidity;BMP_temperature;BMP_pressure;BME280_temperature;BME280_humidity;BME280_pressure;Samples;Min_cycle;Max_cycle;Signal;HPM_P1;HPM_P2
2021/12/12 00:00:03;;;;;;;4.07;3.25;;;;;;;2.35;100.00;99674.13;4918375;29;20125;-68
2021/12/12 00:02:45;;;;;;;2.92;2.72;;;;;;;2.31;100.00;99669.72;4918162;29;20032;-68
2021/12/12 00:05:15;;;;;;;22.55;3.47;;;;;;;2.27;100.00;99679.03;4918131;29;20094;-68
2021/12/12 00:07:41;;;;;;;5.80;2.85;;;;;;;2.24;100.00;99678.94;4918091;29;20107;-68
2021/12/12 00:10:14;;;;;;;9.48;2.35;;;;;;;2.31;100.00;99683.38;4917812;29;20028;-68
2021/12/12 00:12:46;;;;;;;3.35;2.90;;;;;;;2.38;100.00;99674.22;4917976;29;20028;-68
2021/12/12 00:15:13;;;;;;;1.83;1.73;;;;;;;2.38;100.00;99681.03;4917982;29;20028;-68
2021/12/12 00:17:39;;;;;;;3.45;3.08;;;;;;;2.37;100.00;99684.38;4917813;29;20032;-68
2021/12/12 00:20:07;;;;;;;2.65;2.42;;;;;;;2.38;100.00;99691.25;4918020;29;20039;-68
2021/12/12 00:22:33;;;;;;;4.75;2.75;;;;;;;2.38;100.00;99686.16;4918001;29;20020;-70
2021/12/12 00:24:59;;;;;;;5.63;4.30;;;;;;;2.38;100.00;99697.25;4917702;29;20035;-73
2021/12/12 00:27:24;;;;;;;5.22;2.15;;;;;;;2.36;100.00;99692.88;4917673;29;20031;-69
2021/12/12 00:29:51;;;;;;;3.58;3.30;;;;;;;2.41;100.00;99706.66;4916855;29;20385;-69
2021/12/12 00:32:19;;;;;;;4.28;3.88;;;;;;;2.42;100.00;99693.94;4917498;29;20039;-69
2021/12/12 00:34:51;;;;;;;3.63;3.35;;;;;;;2.39;100.00;99692.97;4917679;29;20047;-69
2021/12/12 00:37:17;;;;;;;4.47;4.07;;;;;;;2.47;100.00;99692.41;4917255;29;20118;-69
2021/12/12 00:39:50;;;;;;;2.83;2.63;;;;;;;2.36;100.00;99682.66;4917429;29;20059;-68
2021/12/12 00:42:18;;;;;;;2.50;2.35;;;;;;;2.33;100.00;99692.81;4916643;29;20508;-68
2021/12/12 00:44:49;;;;;;;3.05;2.85;;;;;;;2.33;100.00;99703.03;4917418;29;20047;-68
2021/12/12 00:47:15;;;;;;;3.00;2.17;;;;;;;2.27;100.00;99704.59;4917269;29;20039;-67
2021/12/12 00:49:42;;;;;;;2.88;2.67;;;;;;;2.34;100.00;99707.31;4917451;29;20101;-67
2021/12/12 00:52:14;;;;;;;4.07;3.67;;;;;;;2.32;100.00;99712.38;4917139;29;20035;-67
2021/12/12 00:54:40;;;;;;;6.57;4.13;;;;;;;2.38;100.00;99709.16;4917084;29;20486;-67
2021/12/12 00:57:10;;;;;;;4.70;4.30;;;;;;;2.38;100.00;99719.38;4916867;29;20036;-67
2021/12/12 00:59:36;;;;;;;3.53;2.17;;;;;;;2.33;100.00;99720.94;4917447;29;20028;-67
2021/12/12 08:02:06;;;;;;;3.05;2.85;;;;;;;-0.09;100.00;99909.53;5162966;23;20078;-68
2021/12/12 08:04:32;;;;;;;0.63;0.63;;;;;;;0.05;100.00;99892.28;4937302;29;20046;-68
2021/12/12 08:07:00;;;;;;;0.88;0.88;;;;;;;0.14;100.00;99912.16;4936973;29;20024;-68
2021/12/12 08:09:27;;;;;;;1.05;1.05;;;;;;;0.38;100.00;99907.19;4929279;29;20493;-68
2021/12/12 08:11:53;;;;;;;1.33;1.33;;;;;;;0.23;100.00;99897.25;4937228;29;20378;-68
2021/12/12 08:14:23;;;;;;;2.05;1.95;;;;;;;0.52;100.00;99906.06;4937272;29;20114;-68
2021/12/12 08:16:50;;;;;;;2.88;2.50;;;;;;;0.50;100.00;99897.50;4937051;29;20032;-69
2021/12/12 08:19:20;;;;;;;2.25;1.42;;;;;;;0.75;99.02;99900.22;4937044;29;20053;-69
2021/12/12 08:21:47;;;;;;;1.55;1.55;;;;;;;0.83;98.70;99904.75;4937268;29;20078;-69
2021/12/12 08:24:13;;;;;;;1.13;1.13;;;;;;;1.19;98.02;99903.59;4936863;29;20361;-69
2021/12/12 08:26:42;;;;;;;1.17;1.17;;;;;;;1.50;97.72;99909.84;4936712;29;20066;-69
2021/12/12 08:29:09;;;;;;;1.27;1.27;;;;;;;1.74;93.84;99904.72;4936812;29;20059;-69
2021/12/12 08:31:36;;;;;;;1.75;1.65;;;;;;;2.15;91.90;99903.59;4936755;29;20035;-69
2021/12/12 08:34:07;;;;;;;1.20;1.20;;;;;;;2.81;89.26;99904.06;4936593;29;20024;-69
2021/12/12 08:36:35;;;;;;;2.03;1.90;;;;;;;3.59;86.27;99902.94;4932548;29;20492;-69
2021/12/12 08:39:03;;;;;;;3.03;1.98;;;;;;;3.91;84.56;99896.09;4936492;29;20094;-69
2021/12/12 08:41:28;;;;;;;2.05;1.85;;;;;;;3.96;82.47;99899.66;4936545;29;20102;-70
2021/12/12 08:43:54;;;;;;;1.83;1.67;;;;;;;3.66;83.84;99897.13;4936630;29;20433;-70
2021/12/12 08:46:23;;;;;;;1.35;1.25;;;;;;;3.24;86.29;99900.25;4936395;29;20441;-70
2021/12/12 08:48:51;;;;;;;1.43;1.37;;;;;;;3.77;83.73;99893.19;4936614;29;20067;-70
2021/12/12 08:51:22;;;;;;;2.60;2.47;;;;;;;3.72;83.46;99893.88;4935657;29;20058;-70
2021/12/12 08:53:50;;;;;;;1.17;1.17;;;;;;;3.31;84.89;99907.25;4936322;29;20034;-70
2021/12/12 08:56:29;;;;;;;1.30;1.23;;;;;;;3.64;84.86;99896.25;4936287;29;20027;-70
2021/12/12 08:58:55;;;;;;;1.35;0.80;;;;;;;3.81;81.54;99895.00;4936445;29;20405;-70
2021/12/12 09:01:21;;;;;;;1.65;1.55;;;;;;;3.49;82.11;99904.38;4936004;29;20035;-70
2021/12/12 09:03:59;;;;;;;1.27;1.27;;;;;;;3.15;82.57;99910.22;4936269;29;20481;-70
2021/12/12 09:06:28;;;;;;;0.75;0.75;;;;;;;3.67;77.90;99904.00;4934537;29;20409;-70
2021/12/12 09:09:16;;;;;;;0.77;0.77;;;;;;;3.65;77.72;99907.38;4936015;29;20548;-70
2021/12/12 09:12:13;;;;;;;1.02;1.02;;;;;;;3.60;77.11;99904.66;4935279;29;20039;-70
2021/12/12 09:14:52;;;;;;;1.45;1.35;;;;;;;3.56;78.75;99910.53;4935845;29;20027;-70
2021/12/12 09:17:32;;;;;;;0.98;0.98;;;;;;;3.88;78.29;99908.00;4935876;29;20071;-70
2021/12/12 09:20:04;;;;;;;4.35;1.30;;;;;;;3.48;77.22;99910.31;4936055;29;20598;-70
2021/12/12 09:22:41;;;;;;;0.80;0.80;;;;;;;3.77;76.48;99908.59;4935712;29;20046;-70
2021/12/12 09:25:14;;;;;;;0.98;0.98;;;;;;;3.99;73.97;99912.56;4935839;29;20031;-70
2021/12/12 09:27:48;;;;;;;3.72;0.95;;;;;;;3.77;74.97;99908.59;4935858;29;20214;-70
2021/12/12 09:30:22;;;;;;;1.08;1.08;;;;;;;3.79;75.05;99906.91;4935728;29;20027;-70
2021/12/12 09:33:09;;;;;;;1.67;0.98;;;;;;;3.94;74.37;99909.03;4935650;29;20035;-70
2021/12/12 09:35:42;;;;;;;1.08;1.08;;;;;;;3.93;76.56;99903.88;4935203;29;20043;-70
2021/12/12 09:38:19;;;;;;;1.17;1.17;;;;;;;4.07;76.39;99894.84;4925372;29;20050;-70
2021/12/12 09:41:04;;;;;;;0.50;0.50;;;;;;;4.52;75.62;99891.69;4935512;29;20499;-70
2021/12/12 09:43:46;;;;;;;0.70;0.70;;;;;;;4.53;70.95;99893.41;4935397;29;20031;-70
2021/12/12 09:46:26;;;;;;;0.65;0.65;;;;;;;4.63;71.81;99895.38;4935435;29;20024;-70
2021/12/12 09:52:36;;;;;;;1.00;1.00;;;;;;;5.40;70.28;99888.53;4935589;29;20156;-70
2021/12/12 09:55:07;;;;;;;0.60;0.60;;;;;;;6.22;67.87;99888.41;4935414;29;20024;-70
2021/12/12 09:57:42;;;;;;;1.00;0.98;;;;;;;5.27;69.92;99894.28;4935077;29;20515;-70
2021/12/12 10:00:36;;;;;;;1.27;1.25;;;;;;;5.38;69.78;99892.78;4935232;29;20036;-70
2021/12/12 10:03:02;;;;;;;1.73;1.40;;;;;;;5.51;66.94;99886.19;4935122;29;20502;-70
2021/12/12 10:05:49;;;;;;;1.65;1.55;;;;;;;5.02;69.78;99884.28;4935222;29;20031;-70
2021/12/12 10:08:50;;;;;;;1.48;1.38;;;;;;;5.62;69.42;99878.69;4933642;29;20118;-70
2021/12/12 10:11:38;;;;;;;0.70;0.70;;;;;;;5.71;65.35;99873.72;4935025;29;20106;-70
2021/12/12 10:14:12;;;;;;;1.95;1.33;;;;;;;5.86;66.71;99866.31;4934906;29;20505;-70
2021/12/12 10:16:57;;;;;;;1.70;1.15;;;;;;;5.72;65.41;99870.31;4934968;29;20446;-70
2021/12/12 10:19:39;;;;;;;0.63;0.63;;;;;;;5.15;70.26;99870.88;4934955;29;20028;-70
2021/12/12 10:22:13;;;;;;;1.67;1.15;;;;;;;5.15;70.08;99865.72;4935002;29;20036;-70
2021/12/12 10:25:07;;;;;;;0.60;0.60;;;;;;;5.51;66.91;99867.31;4934785;29;20024;-70
2021/12/12 10:27:56;;;;;;;0.93;0.93;;;;;;;5.35;68.11;99869.56;4934759;29;20027;-70
2021/12/12 10:30:30;;;;;;;1.85;0.70;;;;;;;4.88;69.43;99872.03;4934825;29;20114;-70
2021/12/12 10:33:12;;;;;;;3.13;1.15;;;;;;;5.50;68.47;99868.16;4934864;29;20071;-70
2021/12/12 10:35:53;;;;;;;0.60;0.60;;;;;;;5.88;66.71;99867.19;4933767;29;20122;-70
2021/12/12 10:39:17;;;;;;;0.85;0.85;;;;;;;5.48;65.49;99867.28;4934159;29;20389;-70
2021/12/12 10:41:55;;;;;;;1.10;1.10;;;;;;;5.53;66.91;99868.22;4913363;29;20032;-70
2021/12/12 10:44:32;;;;;;;0.57;0.57;;;;;;;5.60;65.99;99860.66;4932212;29;20035;-70
2021/12/12 10:47:19;;;;;;;0.90;0.90;;;;;;;5.68;66.09;99864.25;4934726;29;20087;-70
2021/12/12 10:50:15;;;;;;;0.60;0.60;;;;;;;5.49;64.01;99859.59;4934665;29;20027;-70
2021/12/12 10:53:06;;;;;;;1.65;1.55;;;;;;;5.57;64.17;99859.75;4934658;29;20028;-70
2021/12/12 10:55:48;;;;;;;1.35;1.25;;;;;;;5.79;63.88;99861.00;4934585;29;20040;-70
2021/12/12 10:58:48;;;;;;;0.90;0.90;;;;;;;5.64;65.32;99857.31;4934717;29;20433;-70
2021/12/12 11:01:19;;;;;;;1.15;1.15;;;;;;;5.81;65.68;99857.63;4930479;29;20456;-70
2021/12/12 11:04:18;;;;;;;1.20;0.80;;;;;;;5.51;65.40;99859.59;4934541;29;20027;-70
2021/12/12 11:06:59;;;;;;;0.80;0.80;;;;;;;5.57;68.00;99864.88;4900578;29;20027;-70
2021/12/12 11:09:34;;;;;;;0.85;0.85;;;;;;;5.37;70.05;99864.50;4926661;29;20041;-70
2021/12/12 11:12:13;;;;;;;2.95;2.53;;;;;;;5.29;69.49;99863.47;4934348;29;20493;-70
2021/12/12 11:14:53;;;;;;;2.22;1.50;;;;;;;5.73;65.61;99851.47;4936326;29;20678;-69
2021/12/12 11:17:26;;;;;;;0.73;0.73;;;;;;;5.46;65.50;99853.50;4937828;29;20032;-71
2021/12/12 11:20:01;;;;;;;0.80;0.80;;;;;;;5.47;67.68;99845.84;4938091;29;20035;-70
2021/12/12 11:22:32;;;;;;;0.50;0.50;;;;;;;5.83;65.40;99848.22;4938008;29;20071;-71
2021/12/12 11:25:07;;;;;;;0.80;0.80;;;;;;;6.01;66.60;99836.59;4938014;29;20111;-71
2021/12/12 11:27:43;;;;;;;0.45;0.45;;;;;;;5.65;64.24;99840.16;4937721;29;20027;-70
2021/12/12 11:30:18;;;;;;;0.85;0.85;;;;;;;5.18;66.81;99840.13;4937829;29;20055;-71
2021/12/12 11:32:44;;;;;;;2.92;2.72;;;;;;;5.55;68.57;99835.69;4937874;29;20088;-71
2021/12/12 11:35:12;;;;;;;2.63;1.33;;;;;;;5.63;69.09;99836.72;4937861;29;20464;-71
2021/12/12 11:37:44;;;;;;;1.33;1.02;;;;;;;5.96;67.80;99839.06;4933516;29;20034;-70
2021/12/12 11:40:30;;;;;;;1.75;1.50;;;;;;;6.30;63.45;99830.22;4937529;29;20032;-71
2021/12/12 11:43:24;;;;;;;0.80;0.80;;;;;;;6.16;63.17;99826.53;4937621;29;20046;-71
2021/12/12 11:45:54;;;;;;;0.98;0.98;;;;;;;6.51;63.42;99834.81;4937624;29;20027;-71
2021/12/12 11:48:22;;;;;;;1.27;1.05;;;;;;;6.73;62.38;99824.84;4937620;29;20563;-71
2021/12/12 11:51:03;;;;;;;0.73;0.73;;;;;;;6.63;64.60;99829.88;4937516;29;20071;-71
2021/12/12 11:53:47;;;;;;;0.68;0.68;;;;;;;6.46;62.84;99835.59;4936922;29;20028;-71
2021/12/12 11:56:16;;;;;;;0.98;0.85;;;;;;;6.59;63.16;99833.25;4937134;29;20123;-71
2021/12/12 11:59:01;;;;;;;0.73;0.73;;;;;;;6.53;63.52;99822.00;4937335;29;20055;-71
2021/12/12 12:01:45;;;;;;;0.60;0.60;;;;;;;6.72;65.01;99813.69;4937312;29;20396;-71
2021/12/12 12:04:37;;;;;;;0.80;0.75;;;;;;;6.59;62.08;99806.63;4937308;29;20016;-71
2021/12/12 12:07:05;;;;;;;0.73;0.73;;;;;;;6.54;61.42;99811.72;4932776;29;20027;-71
2021/12/12 12:09:54;;;;;;;10.70;2.22;;;;;;;6.54;64.54;99813.41;4929468;29;20034;-71
2021/12/12 12:12:41;;;;;;;8.48;4.22;;;;;;;6.15;64.93;99814.53;4937117;29;20027;-71
2021/12/12 12:15:40;;;;;;;0.70;0.70;;;;;;;6.12;62.98;99809.31;4936898;29;20028;-71
2021/12/12 12:18:35;;;;;;;0.75;0.75;;;;;;;6.58;62.31;99804.91;4937014;29;20066;-71
2021/12/12 12:21:14;;;;;;;1.27;1.23;;;;;;;6.81;64.17;99803.50;4934881;29;20040;-69
2021/12/12 12:26:52;;;;;;;0.88;0.88;;;;;;;6.36;61.16;99799.41;4935664;29;20035;-69
2021/12/12 12:29:33;;;;;;;0.80;0.80;;;;;;;6.43;63.21;99801.25;4936836;29;20417;-69
2021/12/12 12:32:07;;;;;;;1.45;1.38;;;;;;;6.63;64.50;99801.53;4936808;29;20034;-69
2021/12/12 12:35:09;;;;;;;0.80;0.80;;;;;;;6.62;64.11;99801.50;4936568;29;20036;-68
2021/12/12 12:38:05;;;;;;;0.90;0.90;;;;;;;6.36;61.93;99795.97;4932189;29;20389;-69
2021/12/12 12:41:11;;;;;;;0.70;0.70;;;;;;;6.63;61.65;99792.97;4917533;29;20024;-68
2021/12/12 12:44:08;;;;;;;1.02;1.02;;;;;;;6.32;61.71;99792.47;4917475;29;20088;-68
2021/12/12 12:46:51;;;;;;;1.27;0.60;;;;;;;6.28;63.94;99800.13;4928251;29;20019;-70
2021/12/12 12:49:47;;;;;;;0.68;0.68;;;;;;;6.29;62.49;99796.75;4935869;29;20062;-70
2021/12/12 12:52:50;;;;;;;0.85;0.85;;;;;;;6.26;65.86;99792.41;4936439;29;20048;-69
2021/12/12 12:55:27;;;;;;;0.77;0.77;;;;;;;6.04;63.08;99795.44;4936254;29;20027;-68
2021/12/12 12:58:17;;;;;;;0.55;0.55;;;;;;;6.53;63.53;99785.94;4936146;29;20034;-69
2021/12/12 13:00:43;;;;;;;1.08;1.02;;;;;;;6.76;63.16;99779.38;4936036;29;20125;-68
2021/12/12 13:03:26;;;;;;;1.38;1.25;;;;;;;7.08;61.15;99776.38;4936315;29;20035;-68
2021/12/12 13:06:00;;;;;;;0.85;0.85;;;;;;;7.14;61.11;99774.72;4933079;29;20045;-69
2021/12/12 13:08:50;;;;;;;2.13;1.17;;;;;;;7.05;66.14;99766.88;4935569;29;20038;-68
2021/12/12 13:11:26;;;;;;;0.77;0.77;;;;;;;7.16;64.28;99769.59;4935996;29;20083;-68
2021/12/12 13:14:36;;;;;;;1.27;0.80;;;;;;;7.25;63.74;99763.66;4935818;29;20102;-68
2021/12/12 13:17:20;;;;;;;1.02;0.80;;;;;;;7.15;60.99;99762.69;4925665;29;20402;-68
2021/12/12 13:20:09;;;;;;;0.80;0.80;;;;;;;6.56;61.22;99755.06;4935862;29;20034;-69
2021/12/12 13:22:40;;;;;;;1.30;0.85;;;;;;;6.44;59.44;99755.78;4935900;29;20508;-72
2021/12/12 13:25:14;;;;;;;1.33;0.77;;;;;;;6.43;61.91;99752.34;4935900;29;20027;-72
2021/12/12 13:30:30;;;;;;;0.88;0.88;;;;;;;6.54;61.64;99756.78;4935795;29;20035;-70
2021/12/12 13:33:06;;;;;;;0.70;0.70;;;;;;;6.67;61.98;99753.50;4934299;29;20050;-70
2021/12/12 13:35:40;;;;;;;0.80;0.80;;;;;;;6.57;62.54;99756.81;4935446;29;20114;-68
2021/12/12 13:38:13;;;;;;;1.50;0.93;;;;;;;6.62;62.56;99757.72;4932312;29;20024;-71
2021/12/12 13:41:08;;;;;;;0.63;0.63;;;;;;;6.52;61.75;99755.88;4935590;29;20031;-70
2021/12/12 13:43:42;;;;;;;0.68;0.68;;;;;;;6.39;61.89;99753.16;4933120;29;20040;-68
2021/12/12 13:46:10;;;;;;;0.80;0.80;;;;;;;6.48;63.55;99761.81;4932399;29;20027;-72
2021/12/12 13:48:53;;;;;;;0.95;0.70;;;;;;;6.62;62.43;99760.31;4935399;29;20043;-72
2021/12/12 13:51:26;;;;;;;4.32;0.80;;;;;;;6.64;64.20;99767.22;4934320;29;20100;-72
2021/12/12 13:54:13;;;;;;;3.30;1.40;;;;;;;6.63;62.30;99772.38;4935602;29;20032;-72
2021/12/12 13:56:47;;;;;;;0.55;0.55;;;;;;;6.80;62.11;99770.84;4935217;29;20218;-68
2021/12/12 13:59:49;;;;;;;1.00;1.00;;;;;;;6.62;63.27;99765.44;4935243;29;20031;-68
2021/12/12 14:02:16;;;;;;;0.77;0.77;;;;;;;6.52;61.08;99764.47;4934965;29;20051;-69
2021/12/12 14:05:06;;;;;;;1.30;1.23;;;;;;;6.46;61.41;99750.66;4933874;29;20027;-68
2021/12/12 14:07:41;;;;;;;0.50;0.50;;;;;;;6.28;62.91;99754.66;4930386;29;20027;-68
2021/12/12 14:10:15;;;;;;;0.68;0.68;;;;;;;6.29;62.46;99755.56;4934942;29;20032;-68
2021/12/12 14:12:43;;;;;;;0.65;0.65;;;;;;;6.21;63.51;99765.72;4935171;29;20038;-68
2021/12/12 14:15:14;;;;;;;1.27;1.17;;;;;;;6.34;62.54;99765.09;4974592;23;20035;-69
2021/12/12 14:17:49;;;;;;;0.40;0.40;;;;;;;6.37;62.74;99754.81;4941275;28;20078;-69
2021/12/12 14:20:21;;;;;;;0.45;0.45;;;;;;;6.38;62.69;99768.53;4934861;29;20507;-69
2021/12/12 14:22:59;;;;;;;0.73;0.73;;;;;;;6.38;62.79;99766.88;4934985;29;20031;-69
2021/12/12 14:25:27;;;;;;;0.70;0.70;;;;;;;6.32;63.34;99766.75;4934830;29;20480;-69
2021/12/12 14:27:56;;;;;;;0.50;0.50;;;;;;;6.13;62.43;99769.88;4934709;29;20080;-68
2021/12/12 14:30:26;;;;;;;0.75;0.55;;;;;;;6.15;63.81;99778.50;4934805;29;20036;-69
2021/12/12 14:33:10;;;;;;;0.77;0.77;;;;;;;6.04;65.39;99777.44;4934825;29;20036;-69
2021/12/12 14:35:46;;;;;;;1.23;0.68;;;;;;;6.00;65.72;99778.25;4934134;29;20032;-69
2021/12/12 14:38:17;;;;;;;0.77;0.77;;;;;;;6.00;65.80;99783.41;4941372;29;20281;-69
2021/12/12 14:40:48;;;;;;;0.80;0.80;;;;;;;6.06;66.90;99788.66;4953764;28;20027;-69
2021/12/12 14:43:22;;;;;;;0.63;0.63;;;;;;;6.21;65.72;99781.16;4953897;28;20046;-69
2021/12/12 14:45:54;;;;;;;5.03;2.20;;;;;;;6.31;65.05;99780.47;4944850;28;20473;-69
2021/12/12 14:48:48;;;;;;;1.02;1.02;;;;;;;6.12;64.76;99783.59;4952645;28;20477;-69
2021/12/12 14:51:21;;;;;;;0.63;0.63;;;;;;;5.98;64.34;99793.66;4957732;28;20122;-69
2021/12/12 14:53:49;;;;;;;0.90;0.80;;;;;;;5.91;66.13;99795.25;4957625;28;20034;-69
2021/12/12 14:56:26;;;;;;;0.77;0.77;;;;;;;5.92;67.30;99797.00;4957258;28;20047;-69
2021/12/12 14:58:56;;;;;;;3.95;1.00;;;;;;;5.88;67.01;99805.47;4957999;28;20388;-69
2021/12/12 15:01:24;;;;;;;0.60;0.60;;;;;;;5.76;68.43;99794.97;4957634;28;20042;-69
2021/12/12 15:03:54;;;;;;;0.70;0.65;;;;;;;5.71;68.56;99791.47;4957505;28;20507;-68
2021/12/12 15:06:24;;;;;;;1.73;1.52;;;;;;;5.66;68.81;99793.06;4948305;28;20032;-68
2021/12/12 15:08:55;;;;;;;;;;;;;;;5.73;67.92;99794.91;4949820;28;20031;-68
2021/12/12 15:11:37;;;;;;;1.45;1.35;;;;;;;5.57;67.88;99796.34;4957326;28;20009;-68
2021/12/12 15:14:10;;;;;;;1.70;1.45;;;;;;;5.55;67.67;99802.28;4954664;28;20027;-69
2021/12/12 15:16:38;;;;;;;0.93;0.93;;;;;;;5.57;68.19;99798.91;4938675;29;20063;-69
2021/12/12 15:19:11;;;;;;;2.25;1.42;;;;;;;5.56;67.37;99796.28;4937869;29;20035;-68
2021/12/12 15:21:40;;;;;;;1.92;1.83;;;;;;;5.47;68.52;99796.16;4938396;29;20070;-69
2021/12/12 15:24:14;;;;;;;1.13;1.13;;;;;;;5.30;68.92;99796.66;4938111;29;20031;-69
2021/12/12 15:26:42;;;;;;;1.42;1.30;;;;;;;5.26;69.55;99802.59;4937829;29;20030;-69
2021/12/12 15:29:11;;;;;;;2.60;2.50;;;;;;;5.25;70.84;99802.56;4937970;29;20031;-68
2021/12/12 15:31:40;;;;;;;2.38;1.40;;;;;;;5.30;68.92;99803.50;4937706;29;20054;-69
2021/12/12 15:34:11;;;;;;;5.65;1.58;;;;;;;5.32;69.90;99807.88;4937734;29;20023;-68
2021/12/12 15:36:40;;;;;;;2.30;1.33;;;;;;;5.51;69.60;99803.06;4937558;29;20023;-68
2021/12/12 15:39:14;;;;;;;1.88;1.77;;;;;;;5.40;69.33;99800.28;4948874;28;20023;-69
2021/12/12 15:41:42;;;;;;;1.25;1.05;;;;;;;5.39;70.96;99809.69;4956822;28;20074;-69
2021/12/12 15:44:20;;;;;;;0.95;0.93;;;;;;;5.37;70.18;99806.25;4953681;28;20042;-69
2021/12/12 15:46:48;;;;;;;0.85;0.85;;;;;;;5.34;70.21;99795.91;4948685;28;20023;-68
2021/12/12 15:49:19;;;;;;;1.17;1.00;;;;;;;5.34;70.76;99808.75;4956665;28;20040;-68
2021/12/12 15:51:46;;;;;;;1.65;1.55;;;;;;;5.31;71.33;99816.38;4956621;28;20050;-68
2021/12/12 15:54:27;;;;;;;1.23;1.17;;;;;;;5.35;70.93;99805.34;4956471;28;20030;-68
2021/12/12 15:57:04;;;;;;;0.77;0.77;;;;;;;5.33;69.99;99803.59;4956368;28;20066;-68
2021/12/12 15:59:36;;;;;;;1.00;0.90;;;;;;;5.31;69.65;99810.38;4956455;28;20392;-69
2021/12/12 16:02:15;;;;;;;1.20;1.10;;;;;;;5.43;70.86;99820.06;4956383;28;20039;-68
2021/12/12 16:04:42;;;;;;;2.90;1.83;;;;;;;5.32;71.39;99818.16;4956357;28;20031;-69
2021/12/12 16:07:15;;;;;;;2.70;1.70;;;;;;;5.35;71.06;99822.47;4947107;28;20438;-68
2021/12/12 16:09:45;;;;;;;1.55;1.45;;;;;;;5.60;69.61;99818.66;4949987;29;20187;-68
2021/12/12 16:12:18;;;;;;;0.70;0.70;;;;;;;5.83;68.15;99817.38;4956478;28;20396;-68
2021/12/12 16:14:47;;;;;;;1.20;1.10;;;;;;;5.62;69.48;99822.13;4952022;28;20030;-68
2021/12/12 16:17:17;;;;;;;1.92;1.10;;;;;;;5.60;68.87;99828.94;4947871;28;20031;-69
2021/12/12 16:19:44;;;;;;;2.17;1.33;;;;;;;5.59;69.28;99832.34;4956424;28;20030;-68
2021/12/12 16:22:27;;;;;;;2.28;1.60;;;;;;;5.55;70.00;99825.41;4956169;28;20027;-72
2021/12/12 16:25:05;;;;;;;1.55;1.45;;;;;;;5.47;70.51;99824.41;4956026;28;20027;-72
2021/12/12 16:27:32;;;;;;;1.50;1.40;;;;;;;5.43;70.52;99832.91;4955917;28;20106;-72
2021/12/12 16:30:06;;;;;;;0.60;0.60;;;;;;;5.39;72.88;99832.84;4955799;28;20031;-72
2021/12/12 16:32:37;;;;;;;1.75;1.52;;;;;;;5.32;71.14;99838.69;4956179;28;20070;-72
2021/12/12 16:35:06;;;;;;;1.45;1.17;;;;;;;5.35;71.22;99833.59;4955753;28;20483;-72
2021/12/12 16:37:35;;;;;;;1.58;1.50;;;;;;;5.33;70.70;99832.72;4942929;28;20493;-72
2021/12/12 16:40:08;;;;;;;2.40;2.25;;;;;;;5.32;70.53;99838.69;4951955;29;20094;-72
2021/12/12 16:42:43;;;;;;;2.58;2.38;;;;;;;5.32;70.82;99836.13;4955769;28;20027;-72
2021/12/12 16:45:20;;;;;;;2.08;1.77;;;;;;;5.30;69.62;99839.50;4952296;28;20074;-72
2021/12/12 16:47:51;;;;;;;3.28;1.67;;;;;;;5.31;70.70;99839.50;4949477;29;20027;-72
2021/12/12 16:50:21;;;;;;;1.45;1.30;;;;;;;5.36;70.72;99840.47;4955895;28;20177;-68
2021/12/12 16:52:48;;;;;;;0.98;0.98;;;;;;;5.36;70.07;99840.47;4955466;28;20054;-68
2021/12/12 16:55:16;;;;;;;1.15;1.15;;;;;;;5.32;70.66;99843.84;4955208;28;20031;-68
2021/12/12 16:57:45;;;;;;;1.20;1.15;;;;;;;5.40;70.10;99842.25;4955344;28;20034;-69
2021/12/12 17:00:31;;;;;;;0.60;0.60;;;;;;;5.35;70.22;99843.88;4955569;28;20053;-69
2021/12/12 17:03:05;;;;;;;0.80;0.80;;;;;;;5.32;70.48;99838.69;4955312;28;20031;-69
2021/12/12 17:05:35;;;;;;;1.20;1.15;;;;;;;5.24;71.72;99839.38;4954954;28;20035;-68
2021/12/12 17:08:15;;;;;;;0.65;0.65;;;;;;;5.15;72.29;99846.03;4939978;29;20024;-69
2021/12/12 17:10:43;;;;;;;;;;;;;;;5.30;71.94;99845.50;4917415;29;20023;-68
2021/12/12 17:13:09;;;;;;;0.70;0.70;;;;;;;5.18;72.71;99846.97;4916341;29;20341;-69
2021/12/12 17:15:35;;;;;;;1.60;1.25;;;;;;;5.16;72.64;99840.06;4938884;28;20041;-68
2021/12/12 17:18:04;;;;;;;3.53;1.92;;;;;;;5.12;71.24;99845.97;4951160;29;20062;-72
2021/12/12 17:20:57;;;;;;;1.10;1.05;;;;;;;5.07;72.47;99846.72;4955011;28;20034;-72
2021/12/12 17:23:27;;;;;;;0.70;0.70;;;;;;;5.09;72.63;99839.91;4946913;29;20035;-72
2021/12/12 17:25:55;;;;;;;3.50;1.75;;;;;;;5.00;72.36;99847.44;4954505;28;20070;-72
2021/12/12 17:28:24;;;;;;;3.10;2.30;;;;;;;5.13;71.93;99841.72;4954738;28;20039;-71
2021/12/12 17:31:05;;;;;;;1.95;1.60;;;;;;;5.11;73.22;99843.38;4955006;28;20037;-72
2021/12/12 17:33:49;;;;;;;1.15;1.15;;;;;;;5.13;72.38;99844.28;4954632;28;20031;-72
2021/12/12 17:36:30;;;;;;;5.50;1.48;;;;;;;5.15;72.28;99840.03;4945521;28;20032;-72
2021/12/12 17:39:03;;;;;;;1.48;1.45;;;;;;;5.17;71.95;99843.50;4946791;28;20066;-72
2021/12/12 17:41:49;;;;;;;1.63;1.52;;;;;;;5.25;73.13;99834.25;4954576;28;20023;-72
2021/12/12 17:44:18;;;;;;;1.50;1.40;;;;;;;5.19;73.64;99831.56;4921755;28;20222;-71
2021/12/12 17:47:21;;;;;;;0.60;0.60;;;;;;;5.03;74.12;99844.91;4945990;28;20019;-71
2021/12/12 17:50:05;;;;;;;1.08;1.08;;;;;;;5.15;73.61;99840.03;4954313;29;20031;-72
2021/12/12 17:53:01;;;;;;;0.95;0.95;;;;;;;5.18;70.91;99840.13;4954338;29;20393;-72
2021/12/12 17:55:44;;;;;;;0.68;0.68;;;;;;;5.17;71.17;99833.22;4954291;28;20377;-71
2021/12/12 17:58:32;;;;;;;0.70;0.70;;;;;;;5.20;71.93;99838.44;4954310;28;20027;-71
2021/12/12 18:01:10;;;;;;;0.77;0.77;;;;;;;5.21;73.38;99840.16;4954405;28;20070;-73
2021/12/12 18:03:42;;;;;;;0.90;0.90;;;;;;;5.27;72.35;99834.28;4954175;29;20029;-72
2021/12/12 18:06:11;;;;;;;2.92;1.33;;;;;;;5.25;72.06;99836.81;4920567;28;20040;-71
2021/12/12 18:09:17;;;;;;;3.20;1.48;;;;;;;5.53;69.35;99832.25;4965408;28;20022;-72
2021/12/12 18:11:50;;;;;;;1.33;1.23;;;;;;;5.58;68.21;99831.47;4894948;29;20040;-72
2021/12/12 18:14:31;;;;;;;2.20;1.73;;;;;;;5.58;67.52;99844.34;4891684;29;20025;-72
2021/12/12 18:17:08;;;;;;;1.13;1.13;;;;;;;5.54;66.60;99833.97;4936082;28;20050;-72
2021/12/12 18:20:07;;;;;;;1.83;1.73;;;;;;;5.53;68.24;99843.38;4973265;28;20026;-72
2021/12/12 18:22:41;;;;;;;2.10;1.17;;;;;;;5.44;70.36;99842.34;4973301;28;20101;-73
2021/12/12 18:25:16;;;;;;;0.75;0.75;;;;;;;5.36;71.47;99840.47;4972613;28;20037;-69
2021/12/12 18:27:45;;;;;;;4.75;2.10;;;;;;;5.47;73.24;99842.41;4972984;28;20173;-69
2021/12/12 18:30:30;;;;;;;3.33;2.77;;;;;;;5.36;73.64;99835.31;4972966;28;20484;-69
2021/12/12 18:33:19;;;;;;;2.05;1.75;;;;;;;5.30;73.93;99840.34;4972906;28;20023;-69
2021/12/12 18:35:53;;;;;;;2.15;1.70;;;;;;;5.30;74.59;99839.50;4968973;28;20027;-70
2021/12/12 18:38:47;;;;;;;4.65;1.27;;;;;;;5.38;71.58;99838.81;4961755;28;20122;-69
2021/12/12 18:41:18;;;;;;;1.48;0.80;;;;;;;5.47;70.48;99847.56;4971793;28;20027;-69
2021/12/12 18:44:00;;;;;;;0.50;0.50;;;;;;;5.46;70.38;99841.50;4972807;28;20022;-69
2021/12/12 18:46:32;;;;;;;0.45;0.45;;;;;;;5.72;68.53;99854.88;4963937;28;20089;-69
2021/12/12 18:49:10;;;;;;;0.60;0.60;;;;;;;5.88;67.37;99849.19;4972934;28;20034;-69
2021/12/12 18:51:58;;;;;;;0.50;0.50;;;;;;;5.73;69.48;99851.47;4972630;28;20081;-69
2021/12/12 18:54:33;;;;;;;0.82;0.82;;;;;;;5.80;69.18;99843.06;4955446;28;20043;-69
2021/12/12 18:57:08;;;;;;;0.88;0.88;;;;;;;5.63;69.48;99849.56;4972709;28;20042;-70
2021/12/12 18:59:34;;;;;;;2.80;2.58;;;;;;;5.55;70.00;99849.41;4972744;28;20498;-69
2021/12/12 19:02:09;;;;;;;0.77;0.77;;;;;;;5.48;70.70;99849.28;4972738;28;20027;-69
2021/12/12 19:04:40;;;;;;;2.65;2.15;;;;;;;5.51;68.11;99851.88;4972768;28;20394;-70
2021/12/12 19:07:09;;;;;;;1.42;1.10;;;;;;;5.50;69.96;99853.59;4963121;28;20031;-69
2021/12/12 19:09:59;;;;;;;1.17;1.17;;;;;;;5.47;70.68;99853.56;4965343;28;20027;-69
2021/12/12 19:12:28;;;;;;;1.25;1.15;;;;;;;5.83;69.47;99853.38;4972609;28;20543;-70
2021/12/12 19:14:54;;;;;;;1.35;0.90;;;;;;;5.73;69.28;99860.91;4952074;28;20404;-70
2021/12/12 19:17:21;;;;;;;0.95;0.95;;;;;;;5.53;70.92;99856.25;4964327;28;20037;-70
2021/12/12 19:19:53;;;;;;;32.17;15.40;;;;;;;5.53;69.22;99857.94;4972633;28;20035;-70
2021/12/12 19:22:28;;;;;;;1.15;1.05;;;;;;;5.59;69.48;99852.91;4972778;28;20056;-70
2021/12/12 19:24:54;;;;;;;1.90;1.73;;;;;;;5.51;69.96;99850.22;4972528;28;20038;-70
2021/12/12 19:27:24;;;;;;;1.92;1.83;;;;;;;5.51;70.29;99855.34;4972364;28;20493;-69
2021/12/12 19:29:57;;;;;;;1.05;1.05;;;;;;;5.50;71.84;99852.72;4972664;28;20508;-69
2021/12/12 19:32:30;;;;;;;0.80;0.80;;;;;;;5.39;72.84;99850.81;4972510;28;20035;-69